Pepperell, Massachusetts
Current Conditions -  °F | °C
As of 12:51 AM on Wednesday 22 Oct 2014 (Local Time) from KASH Reporting Station
Overcast Overcast  
Wind Chill: 50°   Ceiling: 800
Heat Index: 50°   Visibility: 10mi
Dew Point: 49°   Wind: 6mph
Humidity: 96%   Direction: 350°N
Pressure: 30.02"   Gusts: NA
Location:  42.66°N, 71.6°W
Report Text: KASH 220451Z AUTO 35005KT 10SM OVC008 10/09 A3002 RMK AO2 T01000094 SLP415 $
Loading
Personal Weather Stations






























Interactive Weather Map
Tropical Storm Tracking
New forecast layout! Learn more

10-Day Weather Forecast

Advertisements
Track Severe Weather on mobile